sensor_id;sensor_type;location;lat;lon;timestamp;pressure;altitude;pressure_sealevel;temperature;humidity
54194;BME280;40102;50.906;6.972;2022-11-15T00:00:02;100371.91;;;9.25;94.00
54194;BME280;40102;50.906;6.972;2022-11-15T00:02:27;100372.78;;;9.26;94.16
54194;BME280;40102;50.906;6.972;2022-11-15T00:04:52;100374.50;;;9.27;94.55
54194;BME280;40102;50.906;6.972;2022-11-15T00:07:17;100377.09;;;9.28;94.99
54194;BME280;40102;50.906;6.972;2022-11-15T00:09:43;100375.28;;;9.29;94.95
54194;BME280;40102;50.906;6.972;2022-11-15T00:12:08;100371.66;;;9.30;95.24
54194;BME280;40102;50.906;6.972;2022-11-15T00:14:33;100368.81;;;9.33;95.40
54194;BME280;40102;50.906;6.972;2022-11-15T00:16:58;100370.47;;;9.35;95.70
54194;BME280;40102;50.906;6.972;2022-11-15T00:19:23;100365.91;;;9.37;95.76
54194;BME280;40102;50.906;6.972;2022-11-15T00:21:49;100365.72;;;9.40;95.45
54194;BME280;40102;50.906;6.972;2022-11-15T00:24:14;100368.47;;;9.39;95.39
54194;BME280;40102;50.906;6.972;2022-11-15T00:26:39;100369.94;;;9.45;95.69
54194;BME280;40102;50.906;6.972;2022-11-15T00:29:04;100370.88;;;9.44;95.84
54194;BME280;40102;50.906;6.972;2022-11-15T00:31:30;100365.47;;;9.45;96.03
54194;BME280;40102;50.906;6.972;2022-11-15T00:33:55;100359.19;;;9.46;96.10
54194;BME280;40102;50.906;6.972;2022-11-15T00:36:21;100359.94;;;9.48;95.92
54194;BME280;40102;50.906;6.972;2022-11-15T00:38:46;100359.94;;;9.48;96.05
54194;BME280;40102;50.906;6.972;2022-11-15T00:41:11;100362.53;;;9.50;96.66
54194;BME280;40102;50.906;6.972;2022-11-15T00:43:37;100359.88;;;9.50;96.35
54194;BME280;40102;50.906;6.972;2022-11-15T00:46:02;100360.72;;;9.50;95.95
54194;BME280;40102;50.906;6.972;2022-11-15T00:48:27;100369.41;;;9.54;96.19
54194;BME280;40102;50.906;6.972;2022-11-15T00:50:53;100361.31;;;9.55;95.74
54194;BME280;40102;50.906;6.972;2022-11-15T00:53:18;100362.97;;;9.58;95.78
54194;BME280;40102;50.906;6.972;2022-11-15T00:55:43;100354.00;;;9.59;95.33
54194;BME280;40102;50.906;6.972;2022-11-15T00:58:08;100348.47;;;9.62;95.44
54194;BME280;40102;50.906;6.972;2022-11-15T01:00:34;100351.16;;;9.62;95.28
54194;BME280;40102;50.906;6.972;2022-11-15T01:02:59;100359.94;;;9.64;95.42
54194;BME280;40102;50.906;6.972;2022-11-15T01:05:25;100359.94;;;9.64;95.26
54194;BME280;40102;50.906;6.972;2022-11-15T01:07:53;100356.31;;;9.65;95.04
54194;BME280;40102;50.906;6.972;2022-11-15T01:10:19;100352.69;;;9.66;95.25
54194;BME280;40102;50.906;6.972;2022-11-15T01:12:44;100357.09;;;9.67;95.03
54194;BME280;40102;50.906;6.972;2022-11-15T01:15:09;100354.31;;;9.68;94.33
54194;BME280;40102;50.906;6.972;2022-11-15T01:17:35;100355.00;;;9.72;94.16
54194;BME280;40102;50.906;6.972;2022-11-15T01:20:00;100344.25;;;9.73;94.91
54194;BME280;40102;50.906;6.972;2022-11-15T01:22:25;100355.50;;;9.79;96.07
54194;BME280;40102;50.906;6.972;2022-11-15T01:24:50;100344.56;;;9.83;96.61
54194;BME280;40102;50.906;6.972;2022-11-15T01:27:16;100341.91;;;9.83;96.78
54194;BME280;40102;50.906;6.972;2022-11-15T01:29:41;100339.22;;;9.83;97.17
54194;BME280;40102;50.906;6.972;2022-11-15T01:32:06;100346.19;;;9.86;97.26
54194;BME280;40102;50.906;6.972;2022-11-15T01:34:32;100345.44;;;9.84;97.24
54194;BME280;40102;50.906;6.972;2022-11-15T01:36:57;100348.97;;;9.84;97.27
54194;BME280;40102;50.906;6.972;2022-11-15T01:39:22;100347.25;;;9.83;97.20
54194;BME280;40102;50.906;6.972;2022-11-15T01:41:47;100339.13;;;9.85;97.15
54194;BME280;40102;50.906;6.972;2022-11-15T01:46:58;100330.16;;;9.86;96.60
54194;BME280;40102;50.906;6.972;2022-11-15T01:49:24;100331.03;;;9.86;96.89
54194;BME280;40102;50.906;6.972;2022-11-15T01:51:49;100322.84;;;9.89;96.99
54194;BME280;40102;50.906;6.972;2022-11-15T01:54:16;100319.13;;;9.92;97.31
54194;BME280;40102;50.906;6.972;2022-11-15T01:56:46;100318.09;;;9.94;97.75
54194;BME280;40102;50.906;6.972;2022-11-15T01:59:12;100308.34;;;9.93;97.59
54194;BME280;40102;50.906;6.972;2022-11-15T02:01:37;100311.00;;;9.93;97.53
54194;BME280;40102;50.906;6.972;2022-11-15T02:04:13;100311.78;;;9.95;97.24
54194;BME280;40102;50.906;6.972;2022-11-15T02:06:40;100315.41;;;9.94;96.80
54194;BME280;40102;50.906;6.972;2022-11-15T02:09:06;100313.50;;;9.96;96.77
54194;BME280;40102;50.906;6.972;2022-11-15T02:11:31;100303.69;;;9.97;96.08
54194;BME280;40102;50.906;6.972;2022-11-15T02:13:57;100295.56;;;9.98;96.23
54194;BME280;40102;50.906;6.972;2022-11-15T02:18:52;100287.97;;;10.06;97.76
54194;BME280;40102;50.906;6.972;2022-11-15T02:29:07;100280.22;;;10.02;98.30
54194;BME280;40102;50.906;6.972;2022-11-15T02:31:41;100279.25;;;10.03;98.14
54194;BME280;40102;50.906;6.972;2022-11-15T02:34:16;100275.38;;;10.09;98.42
54194;BME280;40102;50.906;6.972;2022-11-15T02:41:57;100278.53;;;10.15;98.64
54194;BME280;40102;50.906;6.972;2022-11-15T02:44:30;100273.84;;;10.19;98.51
54194;BME280;40102;50.906;6.972;2022-11-15T02:46:58;100271.78;;;10.24;98.57
54194;BME280;40102;50.906;6.972;2022-11-15T02:49:45;100262.16;;;10.21;97.52
54194;BME280;40102;50.906;6.972;2022-11-15T02:52:15;100261.09;;;10.24;98.69
54194;BME280;40102;50.906;6.972;2022-11-15T02:54:40;100258.31;;;10.25;98.51
54194;BME280;40102;50.906;6.972;2022-11-15T02:57:16;100252.13;;;10.25;98.34
54194;BME280;40102;50.906;6.972;2022-11-15T02:59:48;100248.22;;;10.30;98.40
54194;BME280;40102;50.906;6.972;2022-11-15T03:02:21;100246.31;;;10.32;98.60
54194;BME280;40102;50.906;6.972;2022-11-15T03:04:57;100248.59;;;10.38;98.55
54194;BME280;40102;50.906;6.972;2022-11-15T03:07:28;100250.19;;;10.41;98.49
54194;BME280;40102;50.906;6.972;2022-11-15T03:09:56;100239.31;;;10.44;97.98
54194;BME280;40102;50.906;6.972;2022-11-15T03:15:05;100244.09;;;10.39;98.20
54194;BME280;40102;50.906;6.972;2022-11-15T03:17:38;100257.25;;;10.42;98.09
54194;BME280;40102;50.906;6.972;2022-11-15T03:20:06;100251.72;;;10.45;97.82
54194;BME280;40102;50.906;6.972;2022-11-15T03:22:40;100256.97;;;10.47;97.90
54194;BME280;40102;50.906;6.972;2022-11-15T03:25:08;100250.56;;;10.49;97.90
54194;BME280;40102;50.906;6.972;2022-11-15T03:27:36;100258.41;;;10.52;97.79
54194;BME280;40102;50.906;6.972;2022-11-15T03:30:04;100260.22;;;10.52;97.49
54194;BME280;40102;50.906;6.972;2022-11-15T03:32:32;100262.88;;;10.52;97.82
54194;BME280;40102;50.906;6.972;2022-11-15T03:35:06;100265.66;;;10.50;97.66
54194;BME280;40102;50.906;6.972;2022-11-15T03:40:07;100253.25;;;10.49;98.08
54194;BME280;40102;50.906;6.972;2022-11-15T03:42:38;100241.03;;;10.45;98.00
54194;BME280;40102;50.906;6.972;2022-11-15T03:45:14;100239.31;;;10.44;97.54
54194;BME280;40102;50.906;6.972;2022-11-15T03:47:54;100250.00;;;10.44;97.92
54194;BME280;40102;50.906;6.972;2022-11-15T03:50:24;100245.50;;;10.45;98.20
54194;BME280;40102;50.906;6.972;2022-11-15T03:52:49;100248.19;;;10.45;98.22
54194;BME280;40102;50.906;6.972;2022-11-15T03:55:17;100247.41;;;10.43;98.34
54194;BME280;40102;50.906;6.972;2022-11-15T03:57:43;100246.56;;;10.42;98.50
54194;BME280;40102;50.906;6.972;2022-11-15T04:00:08;100247.31;;;10.44;98.83
54194;BME280;40102;50.906;6.972;2022-11-15T04:02:34;100242.75;;;10.46;98.84
54194;BME280;40102;50.906;6.972;2022-11-15T04:04:59;100237.47;;;10.45;98.33
54194;BME280;40102;50.906;6.972;2022-11-15T04:07:24;100241.13;;;10.44;98.35
54194;BME280;40102;50.906;6.972;2022-11-15T04:09:49;100241.88;;;10.46;98.59
54194;BME280;40102;50.906;6.972;2022-11-15T04:12:27;100232.13;;;10.45;97.87
54194;BME280;40102;50.906;6.972;2022-11-15T04:14:59;100233.00;;;10.45;98.03
54194;BME280;40102;50.906;6.972;2022-11-15T04:19:59;100219.44;;;10.48;98.21
54194;BME280;40102;50.906;6.972;2022-11-15T04:22:43;100221.06;;;10.51;97.99
54194;BME280;40102;50.906;6.972;2022-11-15T04:25:27;100215.63;;;10.52;97.84
54194;BME280;40102;50.906;6.972;2022-11-15T04:27:52;100217.34;;;10.53;97.78
54194;BME280;40102;50.906;6.972;2022-11-15T04:30:17;100217.34;;;10.53;97.47
54194;BME280;40102;50.906;6.972;2022-11-15T04:32:42;100214.47;;;10.56;98.27
54194;BME280;40102;50.906;6.972;2022-11-15T04:35:08;100220.38;;;10.61;97.85
54194;BME280;40102;50.906;6.972;2022-11-15T04:37:34;100228.31;;;10.63;98.03
54194;BME280;40102;50.906;6.972;2022-11-15T04:39:59;100235.28;;;10.65;97.68
54194;BME280;40102;50.906;6.972;2022-11-15T04:42:25;100226.50;;;10.63;97.75
54194;BME280;40102;50.906;6.972;2022-11-15T04:44:50;100229.16;;;10.63;97.51
54194;BME280;40102;50.906;6.972;2022-11-15T04:47:16;100221.72;;;10.68;98.05
54194;BME280;40102;50.906;6.972;2022-11-15T04:49:41;100227.91;;;10.69;97.79
54194;BME280;40102;50.906;6.972;2022-11-15T04:52:06;100224.38;;;10.68;97.99
54194;BME280;40102;50.906;6.972;2022-11-15T04:54:31;100226.00;;;10.71;98.02
54194;BME280;40102;50.906;6.972;2022-11-15T04:56:57;100226.84;;;10.71;97.84
54194;BME280;40102;50.906;6.972;2022-11-15T04:59:22;100231.53;;;10.68;97.12
54194;BME280;40102;50.906;6.972;2022-11-15T05:01:47;100224.38;;;10.68;97.78
54194;BME280;40102;50.906;6.972;2022-11-15T05:04:12;100239.66;;;10.66;97.75
54194;BME280;40102;50.906;6.972;2022-11-15T05:06:44;100243.50;;;10.62;97.63
54194;BME280;40102;50.906;6.972;2022-11-15T05:09:09;100238.16;;;10.62;97.74
54194;BME280;40102;50.906;6.972;2022-11-15T05:11:35;100242.81;;;10.59;97.75
54194;BME280;40102;50.906;6.972;2022-11-15T05:14:00;100230.50;;;10.56;97.95
54194;BME280;40102;50.906;6.972;2022-11-15T05:16:25;100235.84;;;10.56;98.50
54194;BME280;40102;50.906;6.972;2022-11-15T05:18:51;100232.41;;;10.54;98.82
54194;BME280;40102;50.906;6.972;2022-11-15T05:21:16;100230.69;;;10.53;98.86
54194;BME280;40102;50.906;6.972;2022-11-15T05:23:41;100241.41;;;10.53;99.01
54194;BME280;40102;50.906;6.972;2022-11-15T05:26:07;100244.06;;;10.53;98.97
54194;BME280;40102;50.906;6.972;2022-11-15T05:28:33;100237.00;;;10.52;99.32
54194;BME280;40102;50.906;6.972;2022-11-15T05:31:02;100238.72;;;10.53;99.15
54194;BME280;40102;50.906;6.972;2022-11-15T05:33:27;100237.00;;;10.52;99.12
54194;BME280;40102;50.906;6.972;2022-11-15T05:35:54;100238.06;;;10.50;98.89
54194;BME280;40102;50.906;6.972;2022-11-15T05:38:23;100244.34;;;10.49;99.25
54194;BME280;40102;50.906;6.972;2022-11-15T05:40:48;100242.75;;;10.46;99.59
54194;BME280;40102;50.906;6.972;2022-11-15T05:43:13;100231.09;;;10.47;99.52
54194;BME280;40102;50.906;6.972;2022-11-15T05:45:38;100234.81;;;10.45;99.51
54194;BME280;40102;50.906;6.972;2022-11-15T05:48:05;100234.81;;;10.45;99.49
54194;BME280;40102;50.906;6.972;2022-11-15T05:50:31;100227.75;;;10.44;99.24
54194;BME280;40102;50.906;6.972;2022-11-15T05:52:58;100219.63;;;10.45;99.80
54194;BME280;40102;50.906;6.972;2022-11-15T05:55:24;100219.72;;;10.44;99.66
54194;BME280;40102;50.906;6.972;2022-11-15T05:57:50;100231.28;;;10.44;100.00
54194;BME280;40102;50.906;6.972;2022-11-15T06:00:15;100234.81;;;10.45;99.90
54194;BME280;40102;50.906;6.972;2022-11-15T06:02:40;100239.31;;;10.44;99.75
54194;BME280;40102;50.906;6.972;2022-11-15T06:05:05;100243.59;;;10.47;99.65
54194;BME280;40102;50.906;6.972;2022-11-15T06:07:31;100244.25;;;10.50;100.00
54194;BME280;40102;50.906;6.972;2022-11-15T06:09:56;100248.56;;;10.53;99.54
54194;BME280;40102;50.906;6.972;2022-11-15T06:12:21;100250.38;;;10.52;98.82
54194;BME280;40102;50.906;6.972;2022-11-15T06:14:46;100246.34;;;10.59;99.52
54194;BME280;40102;50.906;6.972;2022-11-15T06:17:12;100255.91;;;10.63;99.27
54194;BME280;40102;50.906;6.972;2022-11-15T06:19:37;100256.09;;;10.60;98.23
54194;BME280;40102;50.906;6.972;2022-11-15T06:22:02;100258.00;;;10.58;98.01
54194;BME280;40102;50.906;6.972;2022-11-15T06:24:27;100260.03;;;10.55;97.83
54194;BME280;40102;50.906;6.972;2022-11-15T06:26:52;100271.97;;;10.49;97.85
54194;BME280;40102;50.906;6.972;2022-11-15T06:29:18;100271.97;;;10.49;97.78
54194;BME280;40102;50.906;6.972;2022-11-15T06:31:43;100273.09;;;10.45;97.40
54194;BME280;40102;50.906;6.972;2022-11-15T06:34:08;100273.38;;;10.41;97.18
54194;BME280;40102;50.906;6.972;2022-11-15T06:36:34;100267.50;;;10.35;97.31
54194;BME280;40102;50.906;6.972;2022-11-15T06:39:00;100268.66;;;10.31;97.19
54194;BME280;40102;50.906;6.972;2022-11-15T06:41:25;100271.41;;;10.30;97.15
54194;BME280;40102;50.906;6.972;2022-11-15T06:43:50;100275.22;;;10.26;97.42
54194;BME280;40102;50.906;6.972;2022-11-15T06:46:16;100285.16;;;10.24;97.69
54194;BME280;40102;50.906;6.972;2022-11-15T06:48:41;100278.19;;;10.21;97.65
54194;BME280;40102;50.906;6.972;2022-11-15T06:51:06;100284.38;;;10.22;97.50
54194;BME280;40102;50.906;6.972;2022-11-15T06:53:32;100285.59;;;10.16;97.44
54194;BME280;40102;50.906;6.972;2022-11-15T06:55:58;100286.53;;;10.15;97.65
54194;BME280;40102;50.906;6.972;2022-11-15T06:58:24;100283.97;;;10.14;97.38
54194;BME280;40102;50.906;6.972;2022-11-15T07:00:49;100286.06;;;10.09;97.59
54194;BME280;40102;50.906;6.972;2022-11-15T07:03:14;100287.00;;;10.07;97.39
54194;BME280;40102;50.906;6.972;2022-11-15T07:05:39;100283.66;;;10.04;97.49
54194;BME280;40102;50.906;6.972;2022-11-15T07:08:05;100289.09;;;10.02;97.64
54194;BME280;40102;50.906;6.972;2022-11-15T07:10:30;100293.75;;;9.99;97.61
54194;BME280;40102;50.906;6.972;2022-11-15T07:12:55;100289.38;;;9.98;97.60
54194;BME280;40102;50.906;6.972;2022-11-15T07:15:22;100293.75;;;9.99;97.36
54194;BME280;40102;50.906;6.972;2022-11-15T07:17:47;100297.66;;;9.93;97.70
54194;BME280;40102;50.906;6.972;2022-11-15T07:20:13;100299.38;;;9.94;97.78
54194;BME280;40102;50.906;6.972;2022-11-15T07:22:39;100301.28;;;9.92;97.83
54194;BME280;40102;50.906;6.972;2022-11-15T07:25:05;100298.63;;;9.92;97.67
54194;BME280;40102;50.906;6.972;2022-11-15T07:27:30;100305.59;;;9.95;97.20
54194;BME280;40102;50.906;6.972;2022-11-15T07:29:56;100302.81;;;9.96;96.84
54194;BME280;40102;50.906;6.972;2022-11-15T07:32:21;100309.03;;;9.97;96.23
54194;BME280;40102;50.906;6.972;2022-11-15T07:34:46;100316.00;;;9.99;95.47
54194;BME280;40102;50.906;6.972;2022-11-15T07:37:12;100313.22;;;10.01;95.10
54194;BME280;40102;50.906;6.972;2022-11-15T07:39:37;100322.88;;;10.03;94.79
54194;BME280;40102;50.906;6.972;2022-11-15T07:42:02;100319.34;;;10.03;94.56
54194;BME280;40102;50.906;6.972;2022-11-15T07:44:46;100323.66;;;10.05;94.20
54194;BME280;40102;50.906;6.972;2022-11-15T07:47:11;100326.22;;;10.07;93.99
54194;BME280;40102;50.906;6.972;2022-11-15T07:49:37;100332.44;;;10.07;93.68
54194;BME280;40102;50.906;6.972;2022-11-15T07:52:02;100340.34;;;10.09;93.48
54194;BME280;40102;50.906;6.972;2022-11-15T07:54:27;100337.41;;;10.14;93.32
54194;BME280;40102;50.906;6.972;2022-11-15T07:56:53;100336.38;;;10.16;93.19
54194;BME280;40102;50.906;6.972;2022-11-15T07:59:18;100329.97;;;10.19;93.05
54194;BME280;40102;50.906;6.972;2022-11-15T08:01:44;100336.19;;;10.19;92.59
54194;BME280;40102;50.906;6.972;2022-11-15T08:04:10;100321.81;;;10.22;92.33
54194;BME280;40102;50.906;6.972;2022-11-15T08:06:36;100332.22;;;10.26;92.39
54194;BME280;40102;50.906;6.972;2022-11-15T08:09:01;100327.81;;;10.25;92.62
54194;BME280;40102;50.906;6.972;2022-11-15T08:11:26;100321.53;;;10.26;92.57
54194;BME280;40102;50.906;6.972;2022-11-15T08:13:51;100318.84;;;10.26;92.58
54194;BME280;40102;50.906;6.972;2022-11-15T08:16:17;100320.56;;;10.27;92.22
54194;BME280;40102;50.906;6.972;2022-11-15T08:18:42;100313.22;;;10.31;91.12
54194;BME280;40102;50.906;6.972;2022-11-15T08:21:08;100314.09;;;10.31;91.34
54194;BME280;40102;50.906;6.972;2022-11-15T08:23:34;100319.34;;;10.33;91.19
54194;BME280;40102;50.906;6.972;2022-11-15T08:26:00;100321.06;;;10.34;91.18
54194;BME280;40102;50.906;6.972;2022-11-15T08:28:26;100327.28;;;10.34;91.34
54194;BME280;40102;50.906;6.972;2022-11-15T08:30:51;100319.25;;;10.34;91.38
54194;BME280;40102;50.906;6.972;2022-11-15T08:33:16;100314.84;;;10.33;91.41
54194;BME280;40102;50.906;6.972;2022-11-15T08:35:41;100318.38;;;10.34;91.17
54194;BME280;40102;50.906;6.972;2022-11-15T08:38:07;100312.09;;;10.35;91.02
54194;BME280;40102;50.906;6.972;2022-11-15T08:40:33;100315.63;;;10.35;90.29
54194;BME280;40102;50.906;6.972;2022-11-15T08:42:58;100311.91;;;10.38;90.11
54194;BME280;40102;50.906;6.972;2022-11-15T08:45:24;100313.41;;;10.42;89.43
54194;BME280;40102;50.906;6.972;2022-11-15T08:47:49;100307.88;;;10.45;89.53
54194;BME280;40102;50.906;6.972;2022-11-15T08:50:14;100304.22;;;10.46;88.98
54194;BME280;40102;50.906;6.972;2022-11-15T08:52:40;100310.34;;;10.48;88.69
54194;BME280;40102;50.906;6.972;2022-11-15T08:55:05;100308.34;;;10.52;88.48
54194;BME280;40102;50.906;6.972;2022-11-15T08:57:30;100296.69;;;10.53;88.36
54194;BME280;40102;50.906;6.972;2022-11-15T08:59:56;100296.50;;;10.56;88.17
54194;BME280;40102;50.906;6.972;2022-11-15T09:02:21;100284.75;;;10.58;88.20
54194;BME280;40102;50.906;6.972;2022-11-15T09:04:46;100291.81;;;10.59;87.87
54194;BME280;40102;50.906;6.972;2022-11-15T09:07:12;100283.69;;;10.61;87.77
54194;BME280;40102;50.906;6.972;2022-11-15T09:09:38;100288.88;;;10.64;88.22
54194;BME280;40102;50.906;6.972;2022-11-15T09:12:04;100285.31;;;10.63;88.38
54194;BME280;40102;50.906;6.972;2022-11-15T09:14:30;100282.56;;;10.65;88.23
54194;BME280;40102;50.906;6.972;2022-11-15T09:16:55;100286.09;;;10.65;87.77
54194;BME280;40102;50.906;6.972;2022-11-15T09:19:20;100282.38;;;10.68;87.48
54194;BME280;40102;50.906;6.972;2022-11-15T09:21:45;100276.72;;;10.73;88.15
54194;BME280;40102;50.906;6.972;2022-11-15T09:24:11;100276.53;;;10.76;88.02
54194;BME280;40102;50.906;6.972;2022-11-15T09:26:36;100270.13;;;10.78;87.15
54194;BME280;40102;50.906;6.972;2022-11-15T09:29:01;100276.91;;;10.84;86.50
54194;BME280;40102;50.906;6.972;2022-11-15T09:31:27;100275.84;;;10.86;86.14
54194;BME280;40102;50.906;6.972;2022-11-15T09:33:52;100277.47;;;10.89;86.03
54194;BME280;40102;50.906;6.972;2022-11-15T09:36:17;100271.16;;;10.90;82.38
54194;BME280;40102;50.906;6.972;2022-11-15T09:38:43;100260.16;;;10.94;80.65
54194;BME280;40102;50.906;6.972;2022-11-15T09:43:46;100256.59;;;11.08;78.04
54194;BME280;40102;50.906;6.972;2022-11-15T09:46:21;100261.66;;;11.13;77.02
54194;BME280;40102;50.906;6.972;2022-11-15T09:48:53;100252.66;;;11.14;76.54
54194;BME280;40102;50.906;6.972;2022-11-15T09:54:17;100245.09;;;11.20;75.69
54194;BME280;40102;50.906;6.972;2022-11-15T09:56:46;100239.31;;;11.26;74.64
54194;BME280;40102;50.906;6.972;2022-11-15T10:01:53;100227.75;;;11.26;73.99
54194;BME280;40102;50.906;6.972;2022-11-15T10:04:20;100216.19;;;11.25;74.16
54194;BME280;40102;50.906;6.972;2022-11-15T10:06:52;100212.34;;;11.29;74.25
54194;BME280;40102;50.906;6.972;2022-11-15T10:09:24;100203.16;;;11.33;72.81
54194;BME280;40102;50.906;6.972;2022-11-15T10:11:51;100205.63;;;11.36;71.80
54194;BME280;40102;50.906;6.972;2022-11-15T10:21:59;100189.19;;;11.55;69.37
54194;BME280;40102;50.906;6.972;2022-11-15T10:24:26;100175.38;;;11.61;70.17
54194;BME280;40102;50.906;6.972;2022-11-15T10:26:55;100182.97;;;11.67;69.49
54194;BME280;40102;50.906;6.972;2022-11-15T10:29:21;100179.97;;;11.72;70.21
54194;BME280;40102;50.906;6.972;2022-11-15T10:31:47;100184.28;;;11.75;70.51
54194;BME280;40102;50.906;6.972;2022-11-15T10:34:13;100186.94;;;11.75;69.69
54194;BME280;40102;50.906;6.972;2022-11-15T10:36:39;100187.41;;;11.81;69.42
54194;BME280;40102;50.906;6.972;2022-11-15T10:39:10;100184.53;;;11.84;67.78
54194;BME280;40102;50.906;6.972;2022-11-15T10:41:37;100175.22;;;11.90;66.74
54194;BME280;40102;50.906;6.972;2022-11-15T10:46:28;100175.44;;;11.99;67.19
54194;BME280;40102;50.906;6.972;2022-11-15T10:48:58;100166.31;;;12.02;65.80
54194;BME280;40102;50.906;6.972;2022-11-15T10:51:39;100157.09;;;12.06;65.72
54194;BME280;40102;50.906;6.972;2022-11-15T10:54:06;100153.00;;;12.13;65.42
54194;BME280;40102;50.906;6.972;2022-11-15T10:56:34;100161.47;;;12.20;63.96
54194;BME280;40102;50.906;6.972;2022-11-15T10:58:59;100148.59;;;12.25;62.79
54194;BME280;40102;50.906;6.972;2022-11-15T11:01:25;100145.69;;;12.28;62.25
54194;BME280;40102;50.906;6.972;2022-11-15T11:04:01;100149.00;;;12.31;61.49
54194;BME280;40102;50.906;6.972;2022-11-15T11:06:27;100141.38;;;12.38;61.29
54194;BME280;40102;50.906;6.972;2022-11-15T11:08:59;100130.84;;;12.48;60.74
54194;BME280;40102;50.906;6.972;2022-11-15T11:11:43;100140.50;;;12.50;60.08
54194;BME280;40102;50.906;6.972;2022-11-15T11:14:12;100133.94;;;12.54;60.31
54194;BME280;40102;50.906;6.972;2022-11-15T11:16:41;100125.44;;;12.60;60.30
54194;BME280;40102;50.906;6.972;2022-11-15T11:19:17;100131.09;;;12.69;60.46
54194;BME280;40102;50.906;6.972;2022-11-15T11:26:45;100119.44;;;13.05;58.97
54194;BME280;40102;50.906;6.972;2022-11-15T11:29:18;100113.50;;;13.12;58.44
54194;BME280;40102;50.906;6.972;2022-11-15T11:36:58;100111.97;;;13.21;58.68
54194;BME280;40102;50.906;6.972;2022-11-15T11:47:00;100098.50;;;13.45;58.20
54194;BME280;40102;50.906;6.972;2022-11-15T11:54:34;100092.81;;;13.72;57.65
54194;BME280;40102;50.906;6.972;2022-11-15T11:57:06;100105.50;;;13.70;57.97
54194;BME280;40102;50.906;6.972;2022-11-15T11:59:52;100100.88;;;13.72;57.47
54194;BME280;40102;50.906;6.972;2022-11-15T12:02:26;100085.47;;;13.74;58.13
54194;BME280;40102;50.906;6.972;2022-11-15T12:04:53;100081.94;;;13.73;57.92
54194;BME280;40102;50.906;6.972;2022-11-15T12:07:27;100085.47;;;13.74;58.08
54194;BME280;40102;50.906;6.972;2022-11-15T12:09:58;100071.91;;;13.75;58.54
54194;BME280;40102;50.906;6.972;2022-11-15T12:17:33;100062.28;;;13.95;58.27
54194;BME280;40102;50.906;6.972;2022-11-15T12:19:59;100064.34;;;13.91;58.86
54194;BME280;40102;50.906;6.972;2022-11-15T12:27:42;100042.00;;;13.91;59.00
54194;BME280;40102;50.906;6.972;2022-11-15T12:30:16;100041.38;;;13.87;59.19
54194;BME280;40102;50.906;6.972;2022-11-15T12:35:21;100028.56;;;13.80;59.55
54194;BME280;40102;50.906;6.972;2022-11-15T12:37:49;100033.69;;;13.72;59.43
54194;BME280;40102;50.906;6.972;2022-11-15T12:45:24;100015.59;;;13.63;60.40
54194;BME280;40102;50.906;6.972;2022-11-15T12:47:49;100013.53;;;13.66;60.42
54194;BME280;40102;50.906;6.972;2022-11-15T12:50:15;100006.06;;;13.70;59.93
54194;BME280;40102;50.906;6.972;2022-11-15T12:53:09;99991.53;;;13.72;59.80
54194;BME280;40102;50.906;6.972;2022-11-15T12:55:29;99997.16;;;13.69;60.28
54194;BME280;40102;50.906;6.972;2022-11-15T12:57:55;99983.09;;;13.66;60.63
54194;BME280;40102;50.906;6.972;2022-11-15T13:02:45;99966.25;;;13.64;60.59
54194;BME280;40102;50.906;6.972;2022-11-15T13:17:37;99962.84;;;13.50;66.42
54194;BME280;40102;50.906;6.972;2022-11-15T13:22:39;99955.38;;;13.43;67.22
54194;BME280;40102;50.906;6.972;2022-11-15T13:25:18;99947.81;;;13.37;68.16
54194;BME280;40102;50.906;6.972;2022-11-15T13:27:47;99942.69;;;13.34;68.70
54194;BME280;40102;50.906;6.972;2022-11-15T13:30:15;99941.22;;;13.29;68.89
54194;BME280;40102;50.906;6.972;2022-11-15T13:32:46;99932.31;;;13.29;68.93
54194;BME280;40102;50.906;6.972;2022-11-15T13:37:46;99929.13;;;13.24;68.50
54194;BME280;40102;50.906;6.972;2022-11-15T13:40:17;99925.47;;;13.25;68.61
54194;BME280;40102;50.906;6.972;2022-11-15T13:42:43;99918.50;;;13.22;69.10
54194;BME280;40102;50.906;6.972;2022-11-15T13:45:12;99919.50;;;13.21;68.82
54194;BME280;40102;50.906;6.972;2022-11-15T13:47:38;99912.66;;;13.17;69.00
54194;BME280;40102;50.906;6.972;2022-11-15T13:50:03;99908.00;;;13.19;68.93
54194;BME280;40102;50.906;6.972;2022-11-15T13:52:34;99908.00;;;13.19;68.85
54194;BME280;40102;50.906;6.972;2022-11-15T13:55:01;99904.69;;;13.16;69.18
54194;BME280;40102;50.906;6.972;2022-11-15T13:57:45;99902.88;;;13.16;69.14
54194;BME280;40102;50.906;6.972;2022-11-15T14:02:55;99893.94;;;13.16;69.39
54194;BME280;40102;50.906;6.972;2022-11-15T14:05:21;99893.09;;;13.15;69.39
54194;BME280;40102;50.906;6.972;2022-11-15T14:07:54;99891.38;;;13.14;69.62
54194;BME280;40102;50.906;6.972;2022-11-15T14:12:51;99881.63;;;13.13;69.25
54194;BME280;40102;50.906;6.972;2022-11-15T14:15:19;99877.34;;;13.11;69.95
54194;BME280;40102;50.906;6.972;2022-11-15T14:17:49;99876.50;;;13.10;69.83
54194;BME280;40102;50.906;6.972;2022-11-15T14:20:28;99863.91;;;13.11;70.20
54194;BME280;40102;50.906;6.972;2022-11-15T14:22:56;99861.47;;;13.08;70.28
54194;BME280;40102;50.906;6.972;2022-11-15T14:25:23;99861.59;;;13.06;70.29
54194;BME280;40102;50.906;6.972;2022-11-15T14:28:49;99854.53;;;13.05;70.37
54194;BME280;40102;50.906;6.972;2022-11-15T14:30:44;99836.47;;;13.07;70.13
54194;BME280;40102;50.906;6.972;2022-11-15T14:33:26;99839.41;;;13.04;70.37
54194;BME280;40102;50.906;6.972;2022-11-15T14:35:53;99836.72;;;13.04;70.27
54194;BME280;40102;50.906;6.972;2022-11-15T14:38:20;99829.38;;;13.06;70.54
54194;BME280;40102;50.906;6.972;2022-11-15T14:40:45;99831.09;;;13.07;70.54
54194;BME280;40102;50.906;6.972;2022-11-15T14:43:11;99816.94;;;13.05;70.65